Rocky Mount, NC (27804)

5:36 PM EDT on May 29, 2015 (GMT -0400)
City Lake - Rocky Mount | | Change Station
CLOSE
Current Station
Personal Weather Station
Location: Rocky Mount, NC
Elevation: 143 ft
Nearby Weather Stations

Elev 143 ft 35.95 °N, 77.82 °W | Updated 39 seconds ago

Clear
Clear
87.8 °F
Feels Like 84 °F
N
2.2
Wind Variable Wind from NE
Gusts 7.6 mph

Today
High -- | Low -- °F
--% Chance of Precip.
Yesterday
High -- | Low -- °F
Precip. -- in
5:57 AM 8:20 PM
Waxing Gibbous, 86% visible
Pressure 30.19 in
Visibility 10.0 miles
Clouds Clear
Heat Index 84 °F
Dew Point 34 °F
Humidity 15%
Rainfall 0.00 in
Snow Depth Not available.
UV 5 out of 12
Pollen 7.10 out of 12
Air Quality Not available.
Flu Activity No Activity
METAR KRWI 292053Z AUTO 17007KT 10SM CLR 31/14 A3019 RMK AO2 SLP221 T03110144 58017

More Conditions Fewer Conditions

Pressure 30.19 in
Visibility 10.0 miles
Clouds Clear
Heat Index 84 °F
Dew Point 34 °F
Humidity 15%
Rainfall 0.00 in
Snow Depth Not available.
UV 5 out of 12
Pollen 7.10 out of 12
Air Quality Not available.
Flu Activity No Activity
METAR KRWI 292053Z AUTO 17007KT 10SM CLR 31/14 A3019 RMK AO2 SLP221 T03110144 58017

More Conditions Fewer Conditions

10-Day Weather Forecast

Almanac

Astronomy

May. 29, 2015 Rise Set
Actual Time
Civil Twilight
Nautical Twilight
Astronomical Twilight
Moon
Length of Visible Light
Length of Day
Tomorrow will be .
, % of the Moon is Illuminated

Today's Extremes

State Highs State Lows

Community

WunderPhotos

Upload Photos

1,825,366 photos uploaded!

WunderBlogs® & News

Nearby

Air Quality

  Air Quality AQ Index Pollutant
Not available.

Snow Depth

Station Depth Elevation

Earthquake Activity

City Distance Mag. Time & Date
Minimum magnitude displayed is 2.5.

Coastal Water Temperatures

Place Temperature

Stations

Nearby Weather Stations

Station Location Temp. Windchill Dew Point Humidity Wind Precip. Elev Updated Type